Time;durP1;ratioP1;P1;durP2;ratioP2;P2;SDS_P1;SDS_P2;PMS_P1;PMS_P2;Temp;Humidity;BMP_temperature;BMP_pressure;BME280_temperature;BME280_humidity;BME280_pressure;Samples;Min_cycle;Max_cycle;Signal;HPM_P1;HPM_P2
2023/04/06 00:00:52;;;;;;;6.10;3.47;;;;;;;7.06;52.42;98732.22;6161292;23;20165;-90
2023/04/06 00:03:18;;;;;;;8.47;4.07;;;;;;;6.90;52.44;98738.19;6160801;23;20154;-89
2023/04/06 00:05:43;;;;;;;9.07;4.10;;;;;;;6.76;52.78;98747.44;6186785;23;20221;-88
2023/04/06 00:08:09;;;;;;;5.97;3.70;;;;;;;7.07;52.55;98748.72;6187330;23;20178;-89
2023/04/06 00:10:35;;;;;;;6.30;3.77;;;;;;;7.17;52.23;98742.19;6161120;23;20476;-89
2023/04/06 00:13:00;;;;;;;9.77;4.40;;;;;;;7.14;51.80;98726.69;6185726;23;20150;-89
2023/04/06 00:15:26;;;;;;;6.33;3.43;;;;;;;7.06;52.38;98736.59;6185497;23;20154;-89
2023/04/06 00:17:52;;;;;;;6.63;3.93;;;;;;;7.11;52.03;98722.44;6187018;23;20225;-88
2023/04/06 00:20:18;;;;;;;7.00;3.43;;;;;;;7.16;52.17;98722.22;6187075;23;20158;-88
2023/04/06 00:22:45;;;;;;;6.60;4.20;;;;;;;7.30;51.95;98714.63;6186963;23;20151;-89
2023/04/06 00:25:11;;;;;;;7.83;3.70;;;;;;;7.16;51.42;98712.66;6185402;23;20154;-89
2023/04/06 00:27:37;;;;;;;8.03;4.20;;;;;;;6.86;53.42;98714.06;6185817;23;20649;-89
2023/04/06 00:30:05;;;;;;;6.67;3.63;;;;;;;6.77;53.40;98712.69;6185373;23;20603;-89
2023/04/06 00:32:30;;;;;;;9.30;4.13;;;;;;;6.89;53.29;98711.31;6185429;23;20162;-89
2023/04/06 00:34:56;;;;;;;6.77;3.93;;;;;;;7.16;52.94;98704.00;6186548;23;20173;-89
2023/04/06 00:37:22;;;;;;;7.50;3.70;;;;;;;6.80;53.72;98715.16;6186446;23;20151;-89
2023/04/06 00:39:47;;;;;;;7.53;4.03;;;;;;;6.80;53.22;98703.91;6186367;23;20150;-89
2023/04/06 00:42:14;;;;;;;7.30;3.70;;;;;;;6.67;53.93;98713.16;6186481;23;20592;-89
2023/04/06 00:44:42;;;;;;;5.73;3.10;;;;;;;6.38;54.10;98711.81;6185626;23;20154;-89
2023/04/06 00:47:08;;;;;;;8.63;3.43;;;;;;;6.54;54.29;98701.59;6187108;23;20575;-89
2023/04/06 00:49:34;;;;;;;9.23;3.63;;;;;;;6.61;53.88;98693.44;6185048;23;20190;-89
2023/04/06 00:52:01;;;;;;;9.13;3.73;;;;;;;6.54;54.37;98697.22;6185211;23;20202;-90
2023/04/06 00:54:27;;;;;;;6.67;3.60;;;;;;;6.47;53.78;98693.19;6186340;23;20547;-89
2023/04/06 00:56:53;;;;;;;7.50;3.97;;;;;;;6.32;54.47;98700.78;6185077;23;20169;-88
2023/04/06 00:59:18;;;;;;;7.80;4.20;;;;;;;6.13;55.20;98698.16;6185050;23;20154;-88
2023/04/06 01:01:44;;;;;;;7.50;4.23;;;;;;;6.27;55.23;98701.00;6186581;23;20190;-88
2023/04/06 01:04:10;;;;;;;10.67;4.50;;;;;;;6.17;54.89;98694.50;6187001;23;20569;-89
2023/04/06 01:06:35;;;;;;;7.97;3.80;;;;;;;6.41;54.94;98705.63;6185389;23;20158;-88
2023/04/06 01:09:01;;;;;;;8.17;4.27;;;;;;;6.45;54.40;98697.59;6186804;23;20174;-89
2023/04/06 01:11:27;;;;;;;7.47;3.83;;;;;;;6.10;55.71;98698.28;6184986;23;20206;-91
2023/04/06 01:13:52;;;;;;;9.57;4.23;;;;;;;6.12;55.90;98699.91;6184942;23;20165;-89
2023/04/06 01:16:18;;;;;;;6.90;3.30;;;;;;;6.22;55.29;98699.50;6186183;23;20157;-88
2023/04/06 01:18:44;;;;;;;6.23;3.47;;;;;;;6.05;55.48;98700.22;6184890;23;20575;-87
2023/04/06 01:21:15;;;;;;;9.63;4.07;;;;;;;5.99;55.96;98700.47;6185219;23;20220;-91
2023/04/06 01:23:42;;;;;;;4.80;3.00;;;;;;;6.18;55.54;98693.59;6186834;23;20157;-91
2023/04/06 01:26:08;;;;;;;6.13;3.20;;;;;;;6.27;55.34;98694.94;6184854;23;20204;-90
2023/04/06 01:28:34;;;;;;;6.63;3.60;;;;;;;6.24;55.03;98692.50;6185925;23;20595;-89
2023/04/06 01:30:59;;;;;;;7.67;4.27;;;;;;;6.31;55.23;98689.56;6186351;23;20147;-90
2023/04/06 01:33:24;;;;;;;7.10;3.97;;;;;;;6.22;54.94;98684.72;6185272;23;20594;-90
2023/04/06 01:35:50;;;;;;;6.67;3.47;;;;;;;6.34;54.71;98694.59;6184903;23;20622;-90
2023/04/06 01:38:15;;;;;;;5.63;3.47;;;;;;;6.25;54.82;98689.81;6184810;23;20161;-89
2023/04/06 01:40:41;;;;;;;7.40;3.53;;;;;;;6.28;54.21;98679.28;6186227;23;20472;-91
2023/04/06 01:43:06;;;;;;;6.03;2.70;;;;;;;6.08;54.75;98687.06;6184789;23;20154;-89
2023/04/06 01:45:32;;;;;;;6.17;3.10;;;;;;;6.22;54.24;98687.34;6184710;23;20155;-91
2023/04/06 01:47:57;;;;;;;6.17;3.30;;;;;;;6.30;54.18;98695.66;6184613;23;20642;-87
2023/04/06 01:50:23;;;;;;;6.50;3.60;;;;;;;6.32;53.33;98685.19;6184911;23;20155;-90
2023/04/06 01:52:48;;;;;;;5.63;2.90;;;;;;;6.59;52.48;98674.44;6186178;23;20567;-90
2023/04/06 01:55:14;;;;;;;8.27;3.60;;;;;;;6.39;52.68;98671.00;6185831;23;20146;-91
2023/04/06 01:57:39;;;;;;;5.10;3.10;;;;;;;6.13;52.78;98666.94;6185949;23;20158;-89
2023/04/06 02:00:06;;;;;;;4.77;3.03;;;;;;;6.27;53.20;98667.16;6185433;23;20173;-90
2023/04/06 02:02:31;;;;;;;7.40;3.70;;;;;;;6.49;52.98;98664.50;6185498;23;20173;-90
2023/04/06 02:04:56;;;;;;;5.17;3.03;;;;;;;6.43;51.84;98670.81;6184440;23;20562;-91
2023/04/06 02:07:22;;;;;;;5.73;2.97;;;;;;;6.46;52.74;98665.47;6185653;23;20626;-88
2023/04/06 02:09:47;;;;;;;5.47;3.20;;;;;;;6.38;52.44;98664.94;6185483;23;20175;-89
2023/04/06 02:12:13;;;;;;;7.77;3.50;;;;;;;6.47;52.64;98664.53;6184336;23;20166;-88
2023/04/06 02:14:38;;;;;;;7.57;3.67;;;;;;;6.34;53.36;98658.16;6185378;23;20158;-87
2023/04/06 02:17:04;;;;;;;5.30;3.30;;;;;;;6.31;53.19;98670.50;6184476;23;20518;-88
2023/04/06 02:19:29;;;;;;;4.60;2.80;;;;;;;6.32;52.54;98665.22;6185418;23;20157;-88
2023/04/06 02:21:55;;;;;;;5.87;2.77;;;;;;;6.12;52.26;98662.63;6185406;23;20245;-89
2023/04/06 02:24:20;;;;;;;8.30;3.90;;;;;;;6.27;53.55;98672.38;6185122;23;20601;-88
2023/04/06 02:26:46;;;;;;;5.10;2.90;;;;;;;6.24;53.11;98669.88;6184722;23;20480;-87
2023/04/06 02:29:11;;;;;;;7.53;3.93;;;;;;;6.06;52.31;98668.06;6185705;23;20205;-89
2023/04/06 02:31:37;;;;;;;8.23;3.10;;;;;;;6.04;52.81;98664.69;6186160;23;20151;-89
2023/04/06 02:34:02;;;;;;;5.70;3.03;;;;;;;6.08;52.44;98655.84;6185451;23;20150;-90
2023/04/06 02:36:28;;;;;;;7.03;3.60;;;;;;;6.18;52.11;98667.56;6184289;23;20150;-91
2023/04/06 02:38:53;;;;;;;5.30;3.10;;;;;;;6.22;52.10;98661.31;6184287;23;20527;-89
2023/04/06 02:41:19;;;;;;;5.70;3.33;;;;;;;6.00;52.82;98660.53;6185404;23;20147;-88
2023/04/06 02:43:44;;;;;;;5.97;2.80;;;;;;;6.10;52.69;98664.44;6184207;23;20155;-90
2023/04/06 02:46:10;;;;;;;10.23;3.07;;;;;;;6.14;52.22;98668.59;6184522;23;20242;-89
2023/04/06 02:48:36;;;;;;;4.20;2.07;;;;;;;6.13;51.90;98664.31;6185261;23;20174;-90
2023/04/06 02:51:02;;;;;;;5.77;3.10;;;;;;;6.26;51.47;98664.63;6185766;23;20159;-89
2023/04/06 02:53:27;;;;;;;4.47;2.67;;;;;;;6.19;51.45;98659.69;6184195;23;20475;-90
2023/04/06 02:55:53;;;;;;;7.07;3.10;;;;;;;6.35;51.28;98659.88;6185977;23;20150;-88
2023/04/06 02:58:18;;;;;;;5.97;2.83;;;;;;;6.60;51.06;98654.47;6186022;23;20142;-89
2023/04/06 03:00:44;;;;;;;5.73;3.13;;;;;;;6.40;51.33;98650.09;6184176;23;20157;-89
2023/04/06 03:03:09;;;;;;;6.33;3.07;;;;;;;6.30;51.01;98656.63;6184148;23;20186;-88
2023/04/06 03:05:35;;;;;;;6.83;3.40;;;;;;;6.30;50.83;98643.63;6183959;23;20154;-89
2023/04/06 03:08:00;;;;;;;6.63;3.53;;;;;;;6.28;51.32;98645.44;6185862;23;20154;-89
2023/04/06 03:10:26;;;;;;;5.70;3.17;;;;;;;5.96;52.24;98658.97;6185082;23;20150;-89
2023/04/06 03:12:51;;;;;;;6.73;3.70;;;;;;;6.16;52.02;98651.16;6186230;23;20149;-89
2023/04/06 03:15:17;;;;;;;6.70;3.07;;;;;;;5.98;51.60;98657.13;6187521;23;20146;-91
2023/04/06 03:17:42;;;;;;;5.53;3.20;;;;;;;6.07;51.50;98654.16;6161369;23;20162;-90
2023/04/06 03:20:08;;;;;;;6.20;2.97;;;;;;;6.35;51.62;98651.22;6161323;23;20589;-89
2023/04/06 03:22:34;;;;;;;5.83;3.00;;;;;;;6.35;51.52;98651.22;6161249;23;20158;-90
2023/04/06 03:24:59;;;;;;;5.50;3.30;;;;;;;6.36;50.37;98656.38;6161244;23;20245;-89
2023/04/06 03:27:25;;;;;;;5.13;2.90;;;;;;;6.15;51.38;98662.50;6187147;23;20170;-89
2023/04/06 03:29:50;;;;;;;3.63;2.40;;;;;;;6.08;51.63;98668.84;6161014;23;20174;-88
2023/04/06 03:32:15;;;;;;;6.37;3.43;;;;;;;6.02;52.16;98666.53;6161479;23;20158;-89
2023/04/06 03:34:41;;;;;;;7.30;3.30;;;;;;;5.96;52.37;98671.97;6187158;23;20390;-90
2023/04/06 03:37:06;;;;;;;5.80;2.43;;;;;;;5.86;52.62;98665.47;6161133;23;20249;-90
2023/04/06 03:39:32;;;;;;;60.30;20.87;;;;;;;5.83;53.57;98669.00;6187325;23;20150;-90
2023/04/06 03:41:57;;;;;;;6.50;3.80;;;;;;;5.88;53.28;98669.69;6187011;23;20158;-89
2023/04/06 03:44:23;;;;;;;5.90;3.40;;;;;;;6.04;53.45;98664.69;6161013;23;20217;-90
2023/04/06 03:46:48;;;;;;;4.23;2.37;;;;;;;6.01;53.99;98675.22;6161115;23;20162;-89
2023/04/06 03:49:14;;;;;;;4.50;3.27;;;;;;;6.07;53.09;98659.38;6161058;23;20186;-88
2023/04/06 03:51:40;;;;;;;5.73;3.67;;;;;;;5.94;53.71;98664.25;6187341;23;20507;-89
2023/04/06 03:54:05;;;;;;;5.17;2.93;;;;;;;5.88;53.82;98663.63;6160927;23;20468;-87
2023/04/06 03:56:30;;;;;;;4.57;2.53;;;;;;;5.81;54.17;98664.78;6161973;23;20158;-89
2023/04/06 03:58:56;;;;;;;6.83;3.60;;;;;;;6.08;52.93;98667.09;6160935;23;20154;-87
2023/04/06 04:01:21;;;;;;;4.77;3.20;;;;;;;5.86;54.71;98668.91;6186827;23;20178;-90
2023/04/06 04:03:47;;;;;;;6.47;3.60;;;;;;;6.11;53.30;98661.75;6161351;23;20157;-88
2023/04/06 04:06:12;;;;;;;6.27;3.33;;;;;;;6.20;52.56;98663.16;6187471;23;20150;-91
2023/04/06 04:08:38;;;;;;;10.27;4.90;;;;;;;5.83;53.92;98666.41;6187335;23;20254;-89
2023/04/06 04:11:03;;;;;;;10.83;4.40;;;;;;;5.85;53.94;98664.59;6186906;23;20567;-87
2023/04/06 04:13:29;;;;;;;9.43;4.03;;;;;;;6.01;53.75;98664.81;6160955;23;20151;-89
2023/04/06 04:15:54;;;;;;;5.93;3.27;;;;;;;6.26;53.02;98664.63;6160766;23;20665;-89
2023/04/06 04:18:20;;;;;;;7.53;3.77;;;;;;;6.07;53.08;98670.63;6186696;23;20218;-88
2023/04/06 04:20:46;;;;;;;6.10;3.60;;;;;;;6.01;52.83;98670.88;6186708;23;20237;-90
2023/04/06 04:23:11;;;;;;;7.33;4.07;;;;;;;6.06;53.70;98665.47;6161169;23;20271;-90
2023/04/06 04:25:37;;;;;;;7.23;3.57;;;;;;;6.07;53.80;98670.63;6186727;23;20184;-89
2023/04/06 04:28:02;;;;;;;3.97;2.47;;;;;;;6.12;53.18;98667.81;6160653;23;20154;-89
2023/04/06 04:30:28;;;;;;;9.53;3.37;;;;;;;6.17;53.94;98671.06;6186658;23;20147;-90
2023/04/06 04:32:54;;;;;;;6.63;3.87;;;;;;;6.14;54.09;98671.19;6160670;23;20278;-90
2023/04/06 04:35:19;;;;;;;8.70;4.27;;;;;;;6.29;53.76;98680.94;6186646;23;20529;-91
2023/04/06 04:37:45;;;;;;;7.03;3.60;;;;;;;6.19;53.88;98677.06;6160583;23;20220;-90
2023/04/06 04:40:11;;;;;;;6.77;3.37;;;;;;;6.26;53.80;98665.50;6186473;23;20147;-90
2023/04/06 04:42:36;;;;;;;9.47;4.50;;;;;;;6.56;53.58;98660.69;6161428;23;20159;-91
2023/04/06 04:45:02;;;;;;;7.10;3.90;;;;;;;6.38;53.71;98667.56;6160527;23;20197;-91
2023/04/06 04:47:27;;;;;;;7.67;3.67;;;;;;;6.33;53.83;98672.13;6186857;23;20146;-90
2023/04/06 04:49:53;;;;;;;8.63;3.97;;;;;;;6.32;53.81;98660.00;6186398;23;20170;-88
2023/04/06 04:52:18;;;;;;;5.83;3.53;;;;;;;6.15;53.54;98667.69;6160751;23;20154;-90
2023/04/06 04:54:44;;;;;;;7.47;3.70;;;;;;;6.45;53.44;98674.19;6160763;23;20158;-89
2023/04/06 04:57:09;;;;;;;10.97;4.50;;;;;;;6.42;53.64;98676.91;6160423;23;20158;-89
2023/04/06 04:59:35;;;;;;;8.57;4.27;;;;;;;6.54;53.91;98671.19;6186322;23;20146;-89
2023/04/06 05:02:00;;;;;;;8.43;4.40;;;;;;;6.62;53.30;98669.09;6160590;23;20158;-89
2023/04/06 05:04:26;;;;;;;7.53;4.27;;;;;;;6.83;53.03;98664.69;6160043;23;20185;-90
2023/04/06 05:07:03;;;;;;;11.23;4.67;;;;;;;6.72;52.59;98665.16;6160652;23;20154;-89
2023/04/06 05:09:30;;;;;;;8.37;3.93;;;;;;;6.71;52.46;98666.06;6160549;23;20174;-87
2023/04/06 05:11:55;;;;;;;8.07;4.03;;;;;;;6.94;52.94;98654.63;6177476;23;20170;-89
2023/04/06 05:14:21;;;;;;;11.70;5.07;;;;;;;7.03;53.17;98653.34;6185046;23;20233;-90
2023/04/06 05:16:46;;;;;;;8.60;4.37;;;;;;;7.32;50.77;98663.28;6185454;23;20151;-89
2023/04/06 05:19:12;;;;;;;7.30;4.40;;;;;;;7.22;51.15;98656.81;6186572;23;20149;-88
2023/04/06 05:21:37;;;;;;;9.17;4.37;;;;;;;7.37;51.64;98662.13;6186485;23;20162;-89
2023/04/06 05:24:03;;;;;;;9.43;4.33;;;;;;;7.33;51.87;98655.41;6185058;23;20163;-87
2023/04/06 05:26:29;;;;;;;5.70;3.80;;;;;;;7.42;51.40;98660.16;6186119;23;20154;-88
2023/04/06 05:28:54;;;;;;;8.00;4.20;;;;;;;7.56;51.17;98659.50;6185205;23;20183;-89
2023/04/06 05:31:20;;;;;;;10.30;4.23;;;;;;;7.45;51.31;98659.16;6184893;23;20188;-90
2023/04/06 05:33:45;;;;;;;6.20;3.50;;;;;;;7.49;51.67;98652.91;6185996;23;20237;-90
2023/04/06 05:36:11;;;;;;;9.27;4.20;;;;;;;7.79;51.90;98645.34;6185682;23;20160;-88
2023/04/06 05:38:37;;;;;;;8.60;4.10;;;;;;;7.80;51.23;98654.88;6184787;23;20156;-90
2023/04/06 05:41:02;;;;;;;5.80;3.60;;;;;;;7.64;51.14;98656.53;6184791;23;20163;-89
2023/04/06 05:43:28;;;;;;;7.03;3.50;;;;;;;7.78;51.08;98652.31;6184820;23;20285;-90
2023/04/06 05:45:53;;;;;;;4.70;2.73;;;;;;;7.56;51.53;98664.72;6185102;23;20158;-88
2023/04/06 05:48:19;;;;;;;6.37;3.43;;;;;;;7.79;51.50;98655.78;6185811;23;20171;-90
2023/04/06 05:50:49;;;;;;;7.83;3.70;;;;;;;7.60;51.85;98653.22;6185086;23;20159;-89
2023/04/06 05:53:15;;;;;;;8.17;3.33;;;;;;;7.77;51.29;98648.03;6185739;23;20153;-89
2023/04/06 05:55:40;;;;;;;7.30;3.70;;;;;;;7.65;51.31;98650.41;6186236;23;20472;-90
2023/04/06 05:58:05;;;;;;;9.20;4.67;;;;;;;7.73;51.78;98650.88;6184929;23;20181;-90
2023/04/06 06:00:31;;;;;;;9.20;3.97;;;;;;;7.92;51.76;98654.25;6184708;23;20170;-92
2023/04/06 06:02:56;;;;;;;7.40;4.07;;;;;;;8.12;51.99;98648.06;6186574;23;20160;-89
2023/04/06 06:05:22;;;;;;;6.90;3.73;;;;;;;8.03;51.53;98647.59;6185664;23;20252;-90
2023/04/06 06:07:47;;;;;;;8.13;4.63;;;;;;;8.39;50.79;98652.72;6186138;23;20641;-89
2023/04/06 06:10:13;;;;;;;7.10;3.77;;;;;;;8.50;50.38;98639.13;6184417;23;20186;-90
2023/04/06 06:12:38;;;;;;;7.17;4.00;;;;;;;9.08;50.40;98640.34;6186786;23;20178;-89
2023/04/06 06:15:05;;;;;;;7.30;3.37;;;;;;;9.29;48.63;98651.38;6185645;23;20159;-91
2023/04/06 06:17:30;;;;;;;11.07;4.67;;;;;;;9.99;46.04;98645.63;6160726;23;20154;-92
2023/04/06 06:19:56;;;;;;;6.47;3.90;;;;;;;10.66;45.36;98641.66;6160098;23;20172;-90
2023/04/06 06:22:21;;;;;;;12.50;4.57;;;;;;;10.58;44.86;98631.66;6186007;23;20142;-90
2023/04/06 06:24:47;;;;;;;7.90;4.23;;;;;;;10.59;44.89;98632.47;6186036;23;20154;-91
2023/04/06 06:27:12;;;;;;;7.53;3.80;;;;;;;10.37;44.31;98643.41;6186284;23;20225;-90
2023/04/06 06:29:38;;;;;;;7.30;4.00;;;;;;;10.06;44.39;98639.13;6185936;23;20253;-89
2023/04/06 06:32:03;;;;;;;5.87;3.50;;;;;;;9.96;45.69;98632.72;6160934;23;20212;-90
2023/04/06 06:34:29;;;;;;;7.07;3.43;;;;;;;9.78;46.76;98636.38;6185603;23;20155;-88
2023/04/06 06:36:55;;;;;;;7.87;3.97;;;;;;;9.94;46.49;98639.81;6159996;23;20248;-90
2023/04/06 06:39:21;;;;;;;6.47;3.67;;;;;;;10.65;45.89;98638.19;6159984;23;20181;-91
2023/04/06 06:41:46;;;;;;;6.53;3.80;;;;;;;10.99;43.00;98648.31;6159913;23;20154;-89
2023/04/06 06:44:12;;;;;;;6.37;3.00;;;;;;;11.19;42.69;98649.66;6185472;23;20150;-87
2023/04/06 06:46:37;;;;;;;7.67;3.70;;;;;;;11.72;42.29;98643.66;6185369;23;20152;-90
2023/04/06 06:49:03;;;;;;;7.40;3.47;;;;;;;12.24;41.29;98643.69;6159297;23;20178;-91
2023/04/06 06:51:28;;;;;;;7.63;4.03;;;;;;;12.50;40.02;98642.75;6159514;23;20156;-90
2023/04/06 06:53:54;;;;;;;6.57;3.70;;;;;;;13.21;39.13;98636.94;6185889;23;20156;-91
2023/04/06 06:56:19;;;;;;;6.37;3.60;;;;;;;13.87;39.27;98631.22;6159642;23;20173;-91
2023/04/06 06:58:45;;;;;;;6.80;3.40;;;;;;;14.40;37.14;98637.78;6159416;23;20151;-91
2023/04/06 07:01:11;;;;;;;6.70;3.03;;;;;;;14.12;37.85;98654.81;6159576;23;20233;-91
2023/04/06 07:03:37;;;;;;;8.77;4.10;;;;;;;13.94;37.96;98624.56;6159380;23;20605;-92
2023/04/06 07:06:02;;;;;;;7.13;3.67;;;;;;;14.11;37.36;98638.16;6159840;23;20488;-92
2023/04/06 07:08:28;;;;;;;5.53;3.20;;;;;;;14.60;39.18;98635.31;6159851;23;20618;-90
2023/04/06 07:10:56;;;;;;;5.70;3.20;;;;;;;14.75;36.52;98623.56;6185469;23;20194;-92
2023/04/06 07:13:23;;;;;;;4.13;2.83;;;;;;;14.73;36.73;98630.75;6185217;23;20184;-92
2023/04/06 07:15:51;;;;;;;5.90;2.53;;;;;;;14.27;36.32;98643.13;6159486;23;20151;-91
2023/04/06 07:18:19;;;;;;;4.60;2.67;;;;;;;13.91;36.92;98640.59;6185676;23;20182;-91
2023/04/06 07:20:45;;;;;;;6.17;3.23;;;;;;;14.04;36.49;98647.47;6185170;23;20206;-91
2023/04/06 07:23:10;;;;;;;4.20;2.43;;;;;;;13.46;38.25;98645.63;6185237;23;20151;-92
2023/04/06 07:25:36;;;;;;;7.50;3.30;;;;;;;13.71;39.05;98639.41;6159309;23;20499;-90
2023/04/06 07:28:05;;;;;;;6.23;2.97;;;;;;;13.57;36.90;98637.78;6185594;23;20161;-90
2023/04/06 07:30:31;;;;;;;6.23;3.60;;;;;;;13.65;39.39;98634.63;6159377;23;20254;-92
2023/04/06 07:32:56;;;;;;;5.20;2.87;;;;;;;14.05;38.68;98635.13;6159414;23;20154;-91
2023/04/06 07:35:24;;;;;;;5.63;2.83;;;;;;;13.91;38.29;98643.22;6185263;23;20154;-91
2023/04/06 07:37:50;;;;;;;4.90;3.03;;;;;;;14.03;38.08;98645.78;6185328;23;20487;-93
2023/04/06 07:40:15;;;;;;;5.43;3.30;;;;;;;13.81;38.04;98645.69;6185436;23;20142;-92
2023/04/06 07:42:41;;;;;;;4.67;2.90;;;;;;;13.48;38.60;98645.50;6159359;23;20197;-92
2023/04/06 07:45:07;;;;;;;5.73;2.93;;;;;;;13.60;38.55;98647.25;6185311;23;20559;-90
2023/04/06 07:47:33;;;;;;;5.80;3.00;;;;;;;13.36;38.81;98641.94;6159416;23;20547;-91
2023/04/06 07:49:58;;;;;;;6.07;2.97;;;;;;;13.55;38.58;98638.84;6159387;23;20206;-92
2023/04/06 07:52:24;;;;;;;6.37;3.27;;;;;;;13.32;39.35;98643.13;6159498;23;20246;-93
2023/04/06 07:54:50;;;;;;;5.60;3.10;;;;;;;13.13;39.18;98636.66;6185224;23;20154;-93
2023/04/06 07:57:15;;;;;;;5.03;2.73;;;;;;;13.17;39.94;98635.50;6159351;23;20154;-91
2023/04/06 07:59:41;;;;;;;6.77;2.93;;;;;;;13.32;38.58;98632.59;6186748;23;20146;-91
2023/04/06 08:02:08;;;;;;;5.27;2.70;;;;;;;13.40;38.85;98625.00;6187142;23;20193;-92
2023/04/06 08:04:35;;;;;;;6.17;3.33;;;;;;;13.44;40.04;98620.38;6187006;23;20157;-91
2023/04/06 08:07:01;;;;;;;4.47;2.40;;;;;;;13.42;39.77;98622.25;6187067;23;20150;-93
2023/04/06 08:09:27;;;;;;;4.67;2.73;;;;;;;13.31;39.52;98619.56;6187081;23;20284;-93
2023/04/06 08:11:55;;;;;;;6.37;3.13;;;;;;;13.22;38.68;98625.47;6177233;23;20494;-90
2023/04/06 08:14:22;;;;;;;8.13;3.37;;;;;;;13.34;39.55;98625.44;6186311;23;20175;-91
2023/04/06 08:16:47;;;;;;;5.40;3.30;;;;;;;13.35;38.77;98621.88;6185752;23;20205;-91
2023/04/06 08:19:13;;;;;;;7.00;3.13;;;;;;;13.26;38.14;98621.69;6187015;23;20559;-92
2023/04/06 08:21:39;;;;;;;5.60;3.10;;;;;;;13.60;40.79;98614.81;6185753;23;20151;-91
2023/04/06 08:24:06;;;;;;;7.20;3.30;;;;;;;14.02;40.16;98609.84;6185851;23;20155;-92
2023/04/06 08:26:31;;;;;;;3.90;2.50;;;;;;;14.03;39.16;98608.91;6185764;23;20233;-93
2023/04/06 08:28:57;;;;;;;6.57;3.70;;;;;;;14.04;39.45;98610.59;6185624;23;20704;-91
2023/04/06 08:31:22;;;;;;;6.73;3.23;;;;;;;13.97;40.53;98604.06;6185324;23;20166;-91
2023/04/06 08:33:48;;;;;;;5.80;2.80;;;;;;;14.15;39.60;98596.56;6185745;23;20197;-92
2023/04/06 08:36:14;;;;;;;4.80;2.70;;;;;;;14.21;38.18;98584.72;6185553;23;20486;-92
2023/04/06 08:38:42;;;;;;;4.57;2.43;;;;;;;14.41;40.00;98592.00;6185755;23;20146;-92
2023/04/06 08:41:13;;;;;;;6.07;3.87;;;;;;;14.48;39.99;98601.13;6187039;23;20160;-91
2023/04/06 08:43:47;;;;;;;5.53;3.17;;;;;;;14.61;39.90;98583.41;6185443;23;20157;-93
2023/04/06 08:46:13;;;;;;;6.80;3.33;;;;;;;14.33;38.51;98589.13;6186982;23;20173;-91
2023/04/06 08:48:41;;;;;;;6.00;3.23;;;;;;;14.20;39.12;98585.72;6185449;23;20229;-92
2023/04/06 08:51:06;;;;;;;6.03;2.93;;;;;;;14.35;40.48;98595.94;6186577;23;20157;-93
2023/04/06 08:53:32;;;;;;;5.40;3.10;;;;;;;14.38;39.45;98586.97;6185610;23;20242;-93
2023/04/06 08:55:59;;;;;;;5.00;2.57;;;;;;;14.24;39.16;98597.69;6185250;23;20170;-92
2023/04/06 08:58:28;;;;;;;4.97;2.70;;;;;;;14.62;39.47;98590.38;6186698;23;20222;-93
2023/04/06 09:00:53;;;;;;;5.93;2.87;;;;;;;14.84;38.17;98590.34;6185363;23;20195;-92
2023/04/06 09:03:21;;;;;;;7.20;2.70;;;;;;;14.77;38.58;98584.72;6185247;23;20161;-92
2023/04/06 09:05:47;;;;;;;6.20;3.33;;;;;;;14.71;39.20;98584.34;6186625;23;20176;-91
2023/04/06 09:08:12;;;;;;;5.17;2.90;;;;;;;14.71;39.83;98587.84;6186768;23;20204;-93
2023/04/06 09:10:41;;;;;;;5.83;2.90;;;;;;;14.76;39.61;98587.47;6180320;23;20191;-93
2023/04/06 09:13:08;;;;;;;5.07;2.97;;;;;;;14.83;38.68;98575.50;6156791;23;20172;-92
2023/04/06 09:15:35;;;;;;;4.13;2.60;;;;;;;15.05;37.91;98564.91;6130987;23;20162;-90
2023/04/06 09:18:06;;;;;;;4.70;2.67;;;;;;;14.89;38.55;98572.34;6157183;23;20150;-92
2023/04/06 09:20:31;;;;;;;5.97;2.93;;;;;;;14.89;38.23;98572.34;6131058;23;20153;-93
2023/04/06 09:22:57;;;;;;;6.40;2.90;;;;;;;15.01;38.31;98571.41;6156730;23;20176;-93
2023/04/06 09:25:25;;;;;;;5.50;2.93;;;;;;;14.86;37.35;98574.41;6156669;23;20581;-92
2023/04/06 09:28:02;;;;;;;5.57;2.80;;;;;;;15.13;41.10;98569.56;6156575;23;20226;-92
2023/04/06 09:30:28;;;;;;;5.37;2.77;;;;;;;15.19;39.56;98569.94;6130802;23;20168;-92
2023/04/06 09:32:56;;;;;;;5.07;2.87;;;;;;;15.50;38.56;98564.81;6130952;23;20225;-94
2023/04/06 09:35:22;;;;;;;5.23;2.70;;;;;;;15.56;38.92;98554.63;6131083;23;20161;-93
2023/04/06 09:37:51;;;;;;;6.50;2.50;;;;;;;15.42;38.40;98559.28;6156985;23;20657;-92
2023/04/06 09:40:18;;;;;;;4.83;2.77;;;;;;;15.35;38.65;98559.81;6157131;23;20157;-94
2023/04/06 09:42:52;;;;;;;6.40;2.83;;;;;;;15.79;36.79;98552.72;6130895;23;20220;-94
2023/04/06 09:45:18;;;;;;;3.83;2.30;;;;;;;16.07;37.60;98540.66;6130929;23;20488;-92
2023/04/06 09:47:45;;;;;;;4.23;2.80;;;;;;;15.80;36.48;98549.13;6130764;23;20172;-94
2023/04/06 09:50:12;;;;;;;4.47;2.30;;;;;;;15.72;36.53;98549.72;6130792;23;20179;-93
2023/04/06 09:52:42;;;;;;;6.77;3.10;;;;;;;15.75;37.45;98548.63;6130796;23;20568;-93
2023/04/06 09:55:11;;;;;;;5.97;3.33;;;;;;;15.66;36.58;98541.47;6157061;23;20178;-93
2023/04/06 09:57:47;;;;;;;5.50;2.73;;;;;;;15.35;37.41;98538.69;6130551;23;20186;-93
2023/04/06 10:00:19;;;;;;;4.83;2.83;;;;;;;15.27;37.39;98543.75;6156322;23;20155;-92
2023/04/06 10:03:07;;;;;;;6.00;2.80;;;;;;;15.07;36.13;98541.84;6130685;23;20182;-93
2023/04/06 10:05:50;;;;;;;5.13;2.53;;;;;;;14.89;36.99;98535.41;6130546;23;20485;-93
2023/04/06 10:08:16;;;;;;;4.10;2.77;;;;;;;14.82;37.51;98544.78;6130462;23;20153;-93
2023/04/06 10:10:43;;;;;;;4.93;2.73;;;;;;;14.96;37.88;98533.13;6138500;23;20171;-92
2023/04/06 10:13:10;;;;;;;5.23;2.97;;;;;;;15.02;38.23;98525.56;6186320;23;20160;-93
2023/04/06 10:15:38;;;;;;;5.90;2.80;;;;;;;15.04;37.01;98534.19;6185727;23;20148;-93
2023/04/06 10:18:04;;;;;;;5.77;2.43;;;;;;;15.15;37.76;98531.53;6184792;23;20152;-93
2023/04/06 10:20:46;;;;;;;4.10;2.30;;;;;;;15.09;36.20;98532.03;6184817;23;20159;-92
2023/04/06 10:23:16;;;;;;;3.83;2.30;;;;;;;15.02;37.02;98530.84;6186499;23;20132;-91
2023/04/06 10:25:57;;;;;;;3.37;2.10;;;;;;;15.05;37.16;98527.94;6184532;23;20231;-91
2023/04/06 10:28:23;;;;;;;4.87;2.30;;;;;;;14.90;38.03;98534.47;6185035;23;20617;-92
2023/04/06 10:30:49;;;;;;;4.60;2.60;;;;;;;15.10;38.47;98527.56;6186129;23;20227;-93
2023/04/06 10:33:19;;;;;;;4.73;2.87;;;;;;;15.03;37.31;98531.69;6185728;23;20243;-92
2023/04/06 10:35:45;;;;;;;5.87;3.30;;;;;;;15.42;39.10;98522.31;6184969;23;20165;-92
2023/04/06 10:38:14;;;;;;;6.97;3.60;;;;;;;15.65;38.50;98519.50;6186460;23;20154;-93
2023/04/06 10:40:42;;;;;;;10.13;4.23;;;;;;;15.85;39.25;98520.50;6185344;23;20232;-93
2023/04/06 10:43:22;;;;;;;12.53;4.50;;;;;;;15.76;36.38;98522.09;6184594;23;20150;-94
2023/04/06 10:45:59;;;;;;;6.07;3.03;;;;;;;15.52;38.00;98515.34;6184103;23;20575;-94
2023/04/06 10:48:25;;;;;;;4.53;2.57;;;;;;;15.39;38.05;98518.97;6184361;23;20188;-92
2023/04/06 10:50:53;;;;;;;5.80;2.67;;;;;;;15.84;38.68;98503.78;6184293;23;20225;-93
2023/04/06 10:53:47;;;;;;;4.27;2.60;;;;;;;16.42;38.09;98501.47;6184511;23;20155;-92
2023/04/06 10:56:17;;;;;;;6.40;2.40;;;;;;;16.83;35.92;98497.88;6185442;23;20150;-93
2023/04/06 10:58:53;;;;;;;5.97;2.27;;;;;;;16.95;35.54;98502.13;6184500;23;20233;-94
2023/04/06 11:01:24;;;;;;;6.27;2.17;;;;;;;17.07;36.66;98495.72;6184652;23;20146;-93
2023/04/06 11:03:52;;;;;;;5.47;2.60;;;;;;;17.23;35.21;98489.88;6184568;23;20197;-93
2023/04/06 11:06:26;;;;;;;3.43;2.00;;;;;;;17.47;35.64;98488.53;6184516;23;20155;-95
2023/04/06 11:08:53;;;;;;;4.73;2.60;;;;;;;17.46;35.18;98476.25;6184769;23;20179;-93
2023/04/06 11:11:20;;;;;;;4.53;2.53;;;;;;;17.62;36.40;98465.94;6184357;23;20244;-93
2023/04/06 11:13:51;;;;;;;5.20;2.53;;;;;;;17.88;35.97;98468.00;6185513;23;20157;-95
2023/04/06 11:16:21;;;;;;;4.60;2.30;;;;;;;18.14;35.20;98469.06;6184632;23;20154;-95
2023/04/06 11:18:53;;;;;;;4.47;2.60;;;;;;;18.46;33.96;98469.50;6185700;23;20146;-94
2023/04/06 11:21:31;;;;;;;4.93;2.53;;;;;;;18.50;32.86;98468.25;6184539;23;20217;-93
2023/04/06 11:24:11;;;;;;;4.43;2.13;;;;;;;18.58;34.04;98464.88;6184429;23;20185;-93
2023/04/06 11:26:45;;;;;;;6.93;2.80;;;;;;;18.47;33.04;98468.56;6184567;23;20470;-93
2023/04/06 11:29:16;;;;;;;5.67;2.60;;;;;;;18.22;33.66;98466.50;6184415;23;20213;-94
2023/04/06 11:31:46;;;;;;;4.80;2.20;;;;;;;18.34;32.13;98471.50;6184380;23;20593;-93
2023/04/06 11:34:13;;;;;;;5.07;2.90;;;;;;;18.36;34.22;98456.28;6185508;23;20158;-94